Time;durP1;ratioP1;P1;durP2;ratioP2;P2;SDS_P1;SDS_P2;PMS_P1;PMS_P2;Temp;Humidity;BMP_temperature;BMP_pressure;BME280_temperature;BME280_humidity;BME280_pressure;Samples;Min_cycle;Max_cycle;Signal;HPM_P1;HPM_P2
2019/11/26 00:01:31;;;;;;;55;40.2;;;;;;;5.53;100;954.8131;;;;
2019/11/26 00:03:58;;;;;;;60.3;43.6;;;;;;;5.36;100;954.8251;;;;
2019/11/26 00:06:23;;;;;;;57.9;42.8;;;;;;;5.37;100;954.8133;;;;
2019/11/26 00:08:48;;;;;;;62.8;44.6;;;;;;;5.32;100;954.8423;;;;
2019/11/26 00:11:59;;;;;;;63.3;45.1;;;;;;;5.2;100;954.769;;;;
2019/11/26 00:14:24;;;;;;;65;47.6;;;;;;;5.35;100;954.6805;;;;
2019/11/26 00:16:54;;;;;;;58.1;43.3;;;;;;;5.42;100;954.5814;;;;
2019/11/26 00:19:21;;;;;;;56.3;42.7;;;;;;;5.49;100;954.5809;;;;
2019/11/26 00:21:46;;;;;;;69.5;48.6;;;;;;;5.3;100;954.647;;;;
2019/11/26 00:24:11;;;;;;;64.5;46.1;;;;;;;5.34;100;954.6088;;;;
2019/11/26 00:26:36;;;;;;;62.4;44.7;;;;;;;5.4;100;954.5984;;;;
2019/11/26 00:29:21;;;;;;;62;44.8;;;;;;;5.46;100;954.5971;;;;
2019/11/26 00:31:46;;;;;;;63.7;46;;;;;;;5.39;100;954.5709;;;;
2019/11/26 00:34:11;;;;;;;65.2;46.3;;;;;;;5.44;100;954.4929;;;;
2019/11/26 00:36:36;;;;;;;58.7;42.9;;;;;;;5.5;100;954.5247;;;;
2019/11/26 00:39:07;;;;;;;58.1;42.9;;;;;;;5.51;100;954.5139;;;;
2019/11/26 00:41:33;;;;;;;59.7;43.1;;;;;;;5.64;100;954.5111;;;;
2019/11/26 00:43:58;;;;;;;59.1;42.9;;;;;;;5.59;100;954.5402;;;;
2019/11/26 00:48:07;;;;;;;62.5;45.5;;;;;;;5.48;100;954.4684;;;;
2019/11/26 00:50:32;;;;;;;63.6;46.4;;;;;;;5.46;100;954.4508;;;;
2019/11/26 00:53:07;;;;;;;62.5;46;;;;;;;5.51;100;954.4272;;;;
2019/11/26 00:55:35;;;;;;;60.1;44.1;;;;;;;5.58;100;954.4164;;;;
2019/11/26 00:58:00;;;;;;;55.9;42.4;;;;;;;5.8;100;954.3708;;;;
2019/11/26 01:00:25;;;;;;;59;43.5;;;;;;;5.73;100;954.3965;;;;
2019/11/26 01:02:50;;;;;;;58.6;42.5;;;;;;;5.72;100;954.3695;;;;
2019/11/26 01:05:15;;;;;;;64.6;46;;;;;;;5.58;100;954.4059;;;;
2019/11/26 01:07:40;;;;;;;59.7;44.9;;;;;;;5.61;100;954.4246;;;;
2019/11/26 01:10:05;;;;;;;64;46.1;;;;;;;5.58;100;954.4034;;;;
2019/11/26 01:12:30;;;;;;;65;47.1;;;;;;;5.62;100;954.4659;;;;
2019/11/26 01:14:55;;;;;;;57;43.7;;;;;;;5.67;100;954.4634;;;;
2019/11/26 01:17:20;;;;;;;53.8;41.2;;;;;;;5.83;100;954.4163;;;;
2019/11/26 01:19:48;;;;;;;55.6;41.9;;;;;;;5.7;100;954.4345;;;;
2019/11/26 01:22:53;;;;;;;57.5;43.9;;;;;;;5.67;100;954.4578;;;;
2019/11/26 01:25:35;;;;;;;57.4;43.9;;;;;;;5.73;100;954.462;;;;
2019/11/26 01:27:48;;;;;;;61.6;45.1;;;;;;;5.56;100;954.4464;;;;
2019/11/26 01:30:11;;;;;;;54.5;41.6;;;;;;;5.83;100;954.4575;;;;
2019/11/26 01:32:36;;;;;;;53.9;41.2;;;;;;;5.76;100;954.4758;;;;
2019/11/26 01:35:01;;;;;;;56.4;42.9;;;;;;;5.68;100;954.445;;;;
2019/11/26 01:37:28;;;;;;;53.4;41;;;;;;;5.79;100;954.3884;;;;
2019/11/26 01:39:55;;;;;;;55.9;43;;;;;;;5.7;100;954.3738;;;;
2019/11/26 01:42:21;;;;;;;52.2;40.5;;;;;;;5.81;100;954.4888;;;;
2019/11/26 01:44:46;;;;;;;53;41.3;;;;;;;5.8;100;954.4881;;;;
2019/11/26 01:47:11;;;;;;;55.5;42.5;;;;;;;5.7;100;954.407;;;;
2019/11/26 01:49:37;;;;;;;54.8;43.2;;;;;;;5.73;100;954.4102;;;;
2019/11/26 01:52:02;;;;;;;49.8;39.8;;;;;;;5.85;100;954.4081;;;;
2019/11/26 01:54:27;;;;;;;48.1;39.5;;;;;;;5.92;100;954.378;;;;
2019/11/26 01:56:54;;;;;;;49;39.2;;;;;;;5.88;100;954.2714;;;;
2019/11/26 01:59:19;;;;;;;51.6;39.7;;;;;;;5.8;100;954.2686;;;;
2019/11/26 02:01:44;;;;;;;53.5;41.1;;;;;;;5.74;100;954.2593;;;;
2019/11/26 02:04:10;;;;;;;54.5;42;;;;;;;5.72;100;954.2435;;;;
2019/11/26 02:06:36;;;;;;;50.8;40.4;;;;;;;5.83;100;954.32;;;;
2019/11/26 02:10:23;;;;;;;52.8;41.2;;;;;;;5.72;100;954.2961;;;;
2019/11/26 02:12:48;;;;;;;50;39.7;;;;;;;5.79;100;954.218;;;;
2019/11/26 02:15:13;;;;;;;47.3;38.3;;;;;;;5.89;100;954.2344;;;;
2019/11/26 02:17:38;;;;;;;46;37.2;;;;;;;5.99;100;954.283;;;;
2019/11/26 02:20:03;;;;;;;46.6;37.8;;;;;;;5.94;100;954.3081;;;;
2019/11/26 02:22:28;;;;;;;50.6;40.8;;;;;;;5.76;100;954.3189;;;;
2019/11/26 02:24:54;;;;;;;49.2;40;;;;;;;5.8;100;954.2755;;;;
2019/11/26 02:27:20;;;;;;;47.7;38.2;;;;;;;5.87;100;954.3036;;;;
2019/11/26 02:29:45;;;;;;;45.6;37.7;;;;;;;5.91;100;954.3984;;;;
2019/11/26 02:32:10;;;;;;;44.9;37.3;;;;;;;6.08;100;954.4269;;;;
2019/11/26 02:34:35;;;;;;;42.7;36.2;;;;;;;6.02;100;954.4294;;;;
2019/11/26 02:37:00;;;;;;;44.5;37.2;;;;;;;5.99;100;954.4139;;;;
2019/11/26 02:39:32;;;;;;;47.6;38.9;;;;;;;5.89;100;954.4045;;;;
2019/11/26 02:41:57;;;;;;;46.7;38;;;;;;;5.83;100;954.4341;;;;
2019/11/26 02:44:22;;;;;;;47.9;39.8;;;;;;;5.74;100;954.4548;;;;
2019/11/26 02:46:58;;;;;;;45;38.4;;;;;;;5.82;100;954.3781;;;;
2019/11/26 02:49:23;;;;;;;42.6;35.5;;;;;;;5.93;100;954.4052;;;;
2019/11/26 02:51:54;;;;;;;42.3;36.2;;;;;;;5.96;100;954.4009;;;;
2019/11/26 02:54:15;;;;;;;42.5;37.5;;;;;;;5.88;100;954.3515;;;;
2019/11/26 02:56:40;;;;;;;37.4;33.3;;;;;;;6.05;100;954.3519;;;;
2019/11/26 02:59:05;;;;;;;38.2;33.8;;;;;;;6.17;100;954.3463;;;;
2019/11/26 03:01:30;;;;;;;36.1;32;;;;;;;6.15;100;954.3391;;;;
2019/11/26 03:03:58;;;;;;;37;32.6;;;;;;;6.12;100;954.2953;;;;
2019/11/26 03:06:23;;;;;;;37.2;33.2;;;;;;;6.09;100;954.3098;;;;
2019/11/26 03:08:48;;;;;;;37;33;;;;;;;6.13;100;954.3416;;;;
2019/11/26 03:11:13;;;;;;;38.2;33.9;;;;;;;6.06;100;954.3617;;;;
2019/11/26 03:13:38;;;;;;;37;33;;;;;;;6.1;100;954.2947;;;;
2019/11/26 03:16:03;;;;;;;36.1;32.1;;;;;;;6.16;100;954.2733;;;;
2019/11/26 03:18:28;;;;;;;36.7;32.8;;;;;;;6.11;100;954.2863;;;;
2019/11/26 03:20:53;;;;;;;35.9;32.1;;;;;;;6.18;100;954.2315;;;;
2019/11/26 03:23:18;;;;;;;36.3;32.4;;;;;;;6.17;100;954.2701;;;;
2019/11/26 03:25:44;;;;;;;36;32.2;;;;;;;6.14;100;954.254;;;;
2019/11/26 03:28:09;;;;;;;37.2;33.1;;;;;;;6;100;954.2977;;;;
2019/11/26 03:30:34;;;;;;;39.5;34.7;;;;;;;5.86;100;954.3265;;;;
2019/11/26 03:32:59;;;;;;;37.2;32.7;;;;;;;6.01;100;954.2955;;;;
2019/11/26 03:35:28;;;;;;;38;33.9;;;;;;;5.98;100;954.2966;;;;
2019/11/26 03:37:53;;;;;;;37.5;33.5;;;;;;;6;100;954.1958;;;;
2019/11/26 03:40:18;;;;;;;35.8;31.9;;;;;;;6.13;100;954.1895;;;;
2019/11/26 03:42:43;;;;;;;35.8;31.9;;;;;;;6.13;100;954.2308;;;;
2019/11/26 03:45:18;;;;;;;35.9;32;;;;;;;6.1;100;954.1903;;;;
2019/11/26 03:47:38;;;;;;;38.2;33.6;;;;;;;6.04;100;954.139;;;;
2019/11/26 03:50:01;;;;;;;37.3;33.2;;;;;;;6.09;100;954.1093;;;;
2019/11/26 03:54:54;;;;;;;39;34.7;;;;;;;6.01;100;954.1778;;;;
2019/11/26 03:57:17;;;;;;;42.7;37.7;;;;;;;5.9;100;954.2162;;;;
2019/11/26 03:59:41;;;;;;;43.2;37.4;;;;;;;5.87;100;954.2115;;;;
